Time;durP1;ratioP1;P1;durP2;ratioP2;P2;SDS_P1;SDS_P2;PMS_P1;PMS_P2;Temp;Humidity;BMP_temperature;BMP_pressure;BME280_temperature;BME280_humidity;BME280_pressure;Samples;Min_cycle;Max_cycle;Signal;HPM_P1;HPM_P2
2023/05/08 00:00:57;;;;;;;5.47;5.03;;;;;;;;;;5018476;28;92516;-69
2023/05/08 00:03:24;;;;;;;;;;;;;;;;;;5028364;28;95167;-68
2023/05/08 00:05:50;;;;;;;7.07;4.63;;;;;;;;;;5011650;28;124082;-67
2023/05/08 00:08:17;;;;;;;4.97;4.38;;;;;;;;;;5021870;28;92432;-68
2023/05/08 00:10:43;;;;;;;4.88;4.47;;;;;;;;;;5021450;28;92979;-67
2023/05/08 00:13:09;;;;;;;5.03;4.63;;;;;;;;;;5029124;28;94446;-67
2023/05/08 00:15:35;;;;;;;8.88;5.28;;;;;;;;;;5027949;28;92407;-67
2023/05/08 00:18:02;;;;;;;5.60;5.20;;;;;;;;;;5027130;28;93461;-68
2023/05/08 00:20:28;;;;;;;8.93;5.30;;;;;;;;;;5025421;28;91650;-67
2023/05/08 00:22:56;;;;;;;13.93;6.45;;;;;;;;;;5023218;28;92470;-67
2023/05/08 00:25:22;;;;;;;16.10;10.60;;;;;;;;;;5022716;28;93798;-68
2023/05/08 00:27:49;;;;;;;17.48;11.07;;;;;;;;;;5019377;28;94845;-67
2023/05/08 00:30:16;;;;;;;15.63;8.77;;;;;;;;;;5018734;28;96600;-68
2023/05/08 00:32:42;;;;;;;12.73;8.50;;;;;;;;;;5018850;28;93709;-68
2023/05/08 00:35:08;;;;;;;63.42;10.35;;;;;;;;;;5021445;28;92405;-68
2023/05/08 00:37:36;;;;;;;34.08;11.02;;;;;;;;;;5025052;28;94135;-67
2023/05/08 00:40:03;;;;;;;59.78;11.43;;;;;;;;;;5018755;27;92567;-69
2023/05/08 00:42:29;;;;;;;27.92;10.13;;;;;;;;;;5034504;27;94218;-68
2023/05/08 00:44:55;;;;;;;45.78;11.63;;;;;;;;;;5034198;27;93181;-68
2023/05/08 00:47:22;;;;;;;33.30;10.50;;;;;;;;;;5016926;28;92675;-68
2023/05/08 00:49:48;;;;;;;53.40;10.00;;;;;;;;;;5028458;28;93239;-68
2023/05/08 00:52:15;;;;;;;27.60;10.63;;;;;;;;;;5019809;28;96347;-69
2023/05/08 00:54:41;;;;;;;14.75;10.10;;;;;;;;;;5035960;28;92509;-69
2023/05/08 00:57:08;;;;;;;17.15;9.25;;;;;;;;;;5032758;27;93351;-68
2023/05/08 00:59:34;;;;;;;40.80;6.97;;;;;;;;;;5028591;27;92364;-68
2023/05/08 01:02:01;;;;;;;41.17;6.72;;;;;;;;;;5017536;28;93314;-68
2023/05/08 01:04:29;;;;;;;37.00;7.15;;;;;;;;;;5015949;28;92483;-68
2023/05/08 01:06:55;;;;;;;9.65;5.60;;;;;;;;;;5021290;28;94295;-68
2023/05/08 01:09:21;;;;;;;13.02;6.35;;;;;;;;;;5016250;28;94196;-68
2023/05/08 01:11:53;;;;;;;7.38;6.38;;;;;;;;;;5008756;28;93424;-69
2023/05/08 01:14:23;;;;;;;15.48;8.00;;;;;;;;;;5016259;28;92569;-68
2023/05/08 01:16:50;;;;;;;14.88;8.07;;;;;;;;;;5015823;28;94974;-68
2023/05/08 01:19:28;;;;;;;36.50;8.48;;;;;;;;;;5019796;28;93247;-68
2023/05/08 01:22:11;;;;;;;25.33;8.95;;;;;;;;;;5017145;28;94271;-68
2023/05/08 01:24:37;;;;;;;25.88;8.90;;;;;;;;;;5016152;28;93395;-68
2023/05/08 01:27:13;;;;;;;21.73;8.70;;;;;;;;;;5016524;28;92426;-69
2023/05/08 01:29:58;;;;;;;37.70;11.05;;;;;;;;;;5016785;28;94239;-68
2023/05/08 01:32:41;;;;;;;19.65;9.10;;;;;;;;;;5015676;28;94462;-68
2023/05/08 01:35:22;;;;;;;26.13;9.77;;;;;;;;;;5016723;28;91831;-69
2023/05/08 01:37:49;;;;;;;50.25;9.60;;;;;;;;;;5012520;28;93156;-68
2023/05/08 01:40:33;;;;;;;22.50;9.48;;;;;;;;;;5014551;28;94506;-69
2023/05/08 01:46:24;;;;;;;11.90;8.60;;;;;;;;;;5007964;28;93932;-68
2023/05/08 01:48:58;;;;;;;10.00;8.25;;;;;;;;;;5030780;28;92582;-69
2023/05/08 01:51:26;;;;;;;12.65;8.98;;;;;;;;;;5036437;27;94282;-69
2023/05/08 01:53:57;;;;;;;12.23;8.32;;;;;;;;;;5013817;27;93481;-68
2023/05/08 01:56:25;;;;;;;12.80;8.48;;;;;;;;;;5010787;28;92486;-68
2023/05/08 01:58:53;;;;;;;11.68;8.48;;;;;;;;;;5014406;28;93368;-68
2023/05/08 02:01:21;;;;;;;9.73;8.20;;;;;;;;;;5025431;28;93754;-68
2023/05/08 02:03:48;;;;;;;11.80;8.32;;;;;;;;;;5018941;28;92458;-69
2023/05/08 02:06:16;;;;;;;10.20;7.82;;;;;;;;;;5015445;27;93665;-69
2023/05/08 02:08:44;;;;;;;9.20;8.13;;;;;;;;;;5008297;28;95960;-68
2023/05/08 02:11:11;;;;;;;7.57;6.88;;;;;;;;;;5020753;28;95591;-68
2023/05/08 02:13:38;;;;;;;8.95;7.93;;;;;;;;;;5034943;27;94259;-69
2023/05/08 02:16:05;;;;;;;11.65;6.70;;;;;;;;;;5033650;27;92388;-69
2023/05/08 02:18:33;;;;;;;12.88;6.95;;;;;;;;;;5015071;28;94198;-69
2023/05/08 02:21:01;;;;;;;8.32;6.90;;;;;;;;;;5023055;28;93439;-68
2023/05/08 02:23:27;;;;;;;7.68;6.40;;;;;;;;;;5015566;28;92493;-70
2023/05/08 02:25:54;;;;;;;9.65;5.80;;;;;;;;;;5018906;28;94217;-70
2023/05/08 02:28:21;;;;;;;11.38;6.05;;;;;;;;;;5015657;28;92534;-69
2023/05/08 02:30:48;;;;;;;21.20;6.90;;;;;;;;;;5015610;28;93238;-70
2023/05/08 02:33:15;;;;;;;84.35;8.02;;;;;;;;;;5013811;28;95821;-69
2023/05/08 02:35:42;;;;;;;53.15;7.22;;;;;;;;;;5015273;28;92489;-69
2023/05/08 02:38:09;;;;;;;66.47;7.22;;;;;;;;;;5015441;27;94391;-68
2023/05/08 02:40:43;;;;;;;41.55;8.18;;;;;;;;;;5014503;28;93387;-68
2023/05/08 02:43:09;;;;;;;44.20;8.07;;;;;;;;;;5009799;28;92736;-69
2023/05/08 02:45:38;;;;;;;40.28;7.20;;;;;;;;;;5009048;28;94223;-69
2023/05/08 02:48:05;;;;;;;60.45;7.75;;;;;;;;;;5018189;28;93902;-68
2023/05/08 02:50:34;;;;;;;43.38;7.88;;;;;;;;;;5015472;28;93188;-69
2023/05/08 02:53:07;;;;;;;23.10;7.47;;;;;;;;;;5015264;28;94213;-69
2023/05/08 02:55:42;;;;;;;21.85;6.43;;;;;;;;;;5015462;28;92516;-68
2023/05/08 02:58:21;;;;;;;33.45;7.20;;;;;;;;;;5034040;27;95043;-69
2023/05/08 03:01:05;;;;;;;20.10;6.75;;;;;;;;;;5018438;28;93449;-68
2023/05/08 03:03:36;;;;;;;60.00;7.38;;;;;;;;;;5018146;28;92495;-69
2023/05/08 03:06:07;;;;;;;56.20;7.82;;;;;;;;;;5019091;28;93133;-71
2023/05/08 03:08:34;;;;;;;16.42;7.25;;;;;;;;;;5025329;27;92503;-70
2023/05/08 03:11:02;;;;;;;35.70;7.57;;;;;;;;;;5027055;27;92406;-69
2023/05/08 03:13:31;;;;;;;48.95;8.02;;;;;;;;;;5028628;28;94670;-69
2023/05/08 03:15:58;;;;;;;43.30;9.02;;;;;;;;;;5020537;28;91815;-69
2023/05/08 03:18:27;;;;;;;71.35;10.23;;;;;;;;;;5012210;28;92665;-69
2023/05/08 03:20:55;;;;;;;56.90;10.98;;;;;;;;;;5020572;27;93783;-69
2023/05/08 03:23:22;;;;;;;92.38;10.45;;;;;;;;;;5012517;28;94822;-69
2023/05/08 03:25:49;;;;;;;87.20;10.63;;;;;;;;;;5015528;28;95591;-69
2023/05/08 03:28:16;;;;;;;77.65;10.70;;;;;;;;;;5022507;28;93501;-69
2023/05/08 03:30:42;;;;;;;35.95;9.32;;;;;;;;;;5022565;27;93165;-69
2023/05/08 03:33:10;;;;;;;40.90;9.55;;;;;;;;;;5027684;28;93486;-68
2023/05/08 03:35:37;;;;;;;36.08;8.55;;;;;;;;;;5013750;28;93291;-69
2023/05/08 03:38:05;;;;;;;173.45;10.73;;;;;;;;;;5034164;27;93349;-68
2023/05/08 03:40:35;;;;;;;104.50;10.48;;;;;;;;;;5011132;28;92640;-69
2023/05/08 03:43:02;;;;;;;38.88;9.30;;;;;;;;;;5014524;28;92509;-68
2023/05/08 03:45:30;;;;;;;38.92;9.13;;;;;;;;;;5013155;28;93386;-69
2023/05/08 03:47:58;;;;;;;57.40;8.95;;;;;;;;;;5021921;28;96990;-71
2023/05/08 03:50:25;;;;;;;73.32;9.25;;;;;;;;;;5031834;27;94238;-68
2023/05/08 03:52:51;;;;;;;49.63;8.90;;;;;;;;;;5034637;27;93141;-68
2023/05/08 03:55:17;;;;;;;43.90;8.45;;;;;;;;;;5032121;28;93279;-68
2023/05/08 03:57:56;;;;;;;25.20;8.52;;;;;;;;;;5025524;27;93862;-68
2023/05/08 04:00:25;;;;;;;35.95;8.25;;;;;;;;;;5023651;27;93438;-68
2023/05/08 04:02:56;;;;;;;32.00;8.57;;;;;;;;;;5003455;27;94624;-68
2023/05/08 04:05:36;;;;;;;36.33;8.30;;;;;;;;;;5020049;28;93481;-68
2023/05/08 04:08:03;;;;;;;;;;;;;;;;;;5012619;28;95417;-68
2023/05/08 04:10:31;;;;;;;48.63;7.82;;;;;;;;;;5015839;28;118450;-68
2023/05/08 04:13:08;;;;;;;23.20;7.72;;;;;;;;;;5014668;27;96323;-68
2023/05/08 04:15:42;;;;;;;53.45;8.40;;;;;;;;;;5019460;28;93507;-68
2023/05/08 04:18:16;;;;;;;32.20;7.95;;;;;;;;;;5013020;28;93879;-68
2023/05/08 04:20:44;;;;;;;17.48;8.00;;;;;;;;;;5025357;27;93641;-68
2023/05/08 04:23:12;;;;;;;32.80;8.57;;;;;;;;;;5032214;27;92510;-68
2023/05/08 04:25:39;;;;;;;26.75;8.00;;;;;;;;;;5019924;28;93923;-68
2023/05/08 04:28:06;;;;;;;13.23;7.55;;;;;;;;;;5014274;28;93359;-68
2023/05/08 04:30:33;;;;;;;15.40;8.23;;;;;;;;;;4999240;28;91741;-68
2023/05/08 04:33:01;;;;;;;28.48;9.55;;;;;;;;;;5017260;28;92464;-68
2023/05/08 04:35:28;;;;;;;10.13;9.10;;;;;;;;;;5016933;28;93883;-73
2023/05/08 04:37:54;;;;;;;13.90;8.50;;;;;;;;;;5018295;28;94914;-68
2023/05/08 04:40:21;;;;;;;11.77;9.30;;;;;;;;;;5016473;28;92817;-69
2023/05/08 04:42:47;;;;;;;9.55;8.65;;;;;;;;;;5016780;28;92478;-68
2023/05/08 04:45:14;;;;;;;9.85;8.85;;;;;;;;;;5016747;28;93666;-68
2023/05/08 04:47:40;;;;;;;9.77;8.02;;;;;;;;;;5017334;28;93788;-68
2023/05/08 04:50:07;;;;;;;8.50;7.80;;;;;;;;;;5016956;28;92464;-68
2023/05/08 04:52:33;;;;;;;8.68;7.93;;;;;;;;;;5016661;28;93351;-68
2023/05/08 04:54:59;;;;;;;8.95;8.07;;;;;;;;;;5017149;28;92755;-68
2023/05/08 04:57:26;;;;;;;8.45;7.65;;;;;;;;;;5027039;28;92741;-68
2023/05/08 04:59:52;;;;;;;8.60;7.80;;;;;;;;;;5018248;28;93526;-68
2023/05/08 05:02:18;;;;;;;8.30;7.47;;;;;;;;;;5005102;28;94940;-68
2023/05/08 05:04:45;;;;;;;8.98;8.18;;;;;;;;;;5022449;27;96634;-68
2023/05/08 05:07:11;;;;;;;11.35;8.57;;;;;;;;;;5015143;28;93434;-69
2023/05/08 05:09:38;;;;;;;9.35;8.45;;;;;;;;;;4997094;28;92465;-68
2023/05/08 05:12:04;;;;;;;8.80;7.90;;;;;;;;;;5033219;28;93352;-68
2023/05/08 05:14:31;;;;;;;9.65;8.65;;;;;;;;;;5025893;27;92832;-68
2023/05/08 05:16:57;;;;;;;9.95;8.40;;;;;;;;;;5019800;28;92493;-68
2023/05/08 05:19:24;;;;;;;9.73;8.77;;;;;;;;;;5023433;28;94394;-68
2023/05/08 05:21:50;;;;;;;10.18;8.95;;;;;;;;;;5027451;27;93489;-68
2023/05/08 05:24:16;;;;;;;9.68;8.80;;;;;;;;;;5026015;28;94512;-68
2023/05/08 05:26:43;;;;;;;9.40;8.50;;;;;;;;;;5012623;28;96601;-68
2023/05/08 05:29:10;;;;;;;11.50;8.60;;;;;;;;;;5026099;28;93243;-68
2023/05/08 05:31:36;;;;;;;9.23;8.43;;;;;;;;;;5026595;28;93499;-68
2023/05/08 05:34:03;;;;;;;9.50;8.68;;;;;;;;;;5020143;27;93034;-68
2023/05/08 05:36:29;;;;;;;9.70;8.80;;;;;;;;;;5000771;28;92668;-68
2023/05/08 05:38:56;;;;;;;10.13;9.15;;;;;;;;;;5014778;28;92996;-68
2023/05/08 05:41:23;;;;;;;9.68;8.77;;;;;;;;;;5007675;28;93540;-68
2023/05/08 05:43:49;;;;;;;10.63;9.52;;;;;;;;;;5011317;28;91772;-68
2023/05/08 05:46:15;;;;;;;9.82;8.82;;;;;;;;;;5009582;28;92982;-68
2023/05/08 05:48:42;;;;;;;9.60;8.80;;;;;;;;;;5013584;28;92753;-68
2023/05/08 05:51:08;;;;;;;11.23;10.23;;;;;;;;;;5015919;28;94894;-68
2023/05/08 05:53:34;;;;;;;11.63;10.45;;;;;;;;;;5014037;28;94988;-68
2023/05/08 05:56:01;;;;;;;13.88;9.52;;;;;;;;;;5018642;28;92394;-68
2023/05/08 05:58:27;;;;;;;12.02;10.77;;;;;;;;;;5016875;28;93039;-68
2023/05/08 06:00:53;;;;;;;12.25;10.95;;;;;;;;;;5013937;28;93410;-68
2023/05/08 06:03:20;;;;;;;13.48;12.07;;;;;;;;;;5017947;28;92658;-68
2023/05/08 06:05:46;;;;;;;14.63;12.38;;;;;;;;;;4997285;28;93458;-68
2023/05/08 06:08:14;;;;;;;16.60;13.50;;;;;;;;;;5016578;27;92314;-67
2023/05/08 06:10:40;;;;;;;14.40;12.30;;;;;;;;;;5029994;28;92751;-68
2023/05/08 06:13:08;;;;;;;15.50;12.05;;;;;;;;;;5020777;28;94419;-68
2023/05/08 06:15:35;;;;;;;19.92;14.77;;;;;;;;;;5025511;27;95135;-68
2023/05/08 06:18:01;;;;;;;26.25;17.35;;;;;;;;;;5016779;27;95761;-67
2023/05/08 06:20:27;;;;;;;20.45;16.27;;;;;;;;;;5014848;28;94499;-68
2023/05/08 06:22:54;;;;;;;20.10;15.02;;;;;;;;;;5008501;28;92452;-68
2023/05/08 06:25:20;;;;;;;26.10;17.52;;;;;;;;;;5017375;28;93424;-67
2023/05/08 06:27:46;;;;;;;27.63;19.30;;;;;;;;;;5014746;28;94237;-68
2023/05/08 06:30:13;;;;;;;30.70;20.17;;;;;;;;;;5014559;28;93414;-67
2023/05/08 06:32:39;;;;;;;28.67;19.95;;;;;;;;;;5015447;28;92747;-67
2023/05/08 06:35:06;;;;;;;23.98;19.05;;;;;;;;;;5021961;28;92525;-68
2023/05/08 06:37:32;;;;;;;26.95;20.08;;;;;;;;;;5015743;27;93382;-68
2023/05/08 06:39:58;;;;;;;27.52;20.15;;;;;;;;;;5010883;28;95813;-69
2023/05/08 06:42:37;;;;;;;25.15;19.10;;;;;;;;;;5019313;28;92488;-68
2023/05/08 06:45:04;;;;;;;32.95;21.58;;;;;;;;;;5012819;28;92986;-68
2023/05/08 06:47:30;;;;;;;26.80;20.75;;;;;;;;;;5015628;28;93711;-68
2023/05/08 06:49:56;;;;;;;29.52;19.60;;;;;;;;;;5028819;28;93254;-68
2023/05/08 06:52:24;;;;;;;28.40;20.73;;;;;;;;;;5014108;28;93705;-68
2023/05/08 06:54:50;;;;;;;31.80;22.15;;;;;;;;;;5013045;28;92479;-68
2023/05/08 06:57:17;;;;;;;29.63;20.83;;;;;;;;;;4994807;28;94219;-68
2023/05/08 06:59:43;;;;;;;30.40;22.05;;;;;;;;;;5012111;28;93324;-68
2023/05/08 07:02:09;;;;;;;35.83;22.15;;;;;;;;;;5012953;28;92446;-67
2023/05/08 07:04:36;;;;;;;29.30;21.50;;;;;;;;;;5011788;28;96343;-68
2023/05/08 07:07:05;;;;;;;29.60;23.85;;;;;;;;;;5033646;27;93603;-68
2023/05/08 07:09:31;;;;;;;34.47;24.38;;;;;;;;;;5035467;27;92533;-68
2023/05/08 07:11:58;;;;;;;35.55;24.05;;;;;;;;;;5028512;27;94440;-68
2023/05/08 07:14:24;;;;;;;31.27;22.88;;;;;;;;;;5019611;27;92576;-68
2023/05/08 07:16:50;;;;;;;31.00;23.42;;;;;;;;;;5013014;28;92463;-67
2023/05/08 07:19:17;;;;;;;35.80;24.85;;;;;;;;;;5013541;28;93506;-68
2023/05/08 07:21:45;;;;;;;44.83;28.08;;;;;;;;;;5027306;28;91741;-68
2023/05/08 07:24:11;;;;;;;40.38;27.33;;;;;;;;;;5030848;27;92556;-68
2023/05/08 07:26:37;;;;;;;38.83;29.00;;;;;;;;;;5021406;27;94625;-68
2023/05/08 07:29:04;;;;;;;40.72;30.63;;;;;;;;;;5019670;28;96774;-68
2023/05/08 07:31:30;;;;;;;40.10;29.30;;;;;;;;;;5015720;28;95951;-68
2023/05/08 07:33:56;;;;;;;46.28;31.05;;;;;;;;;;5013497;28;92404;-67
2023/05/08 07:36:23;;;;;;;51.75;32.28;;;;;;;;;;5013436;28;93150;-67
2023/05/08 07:38:49;;;;;;;45.13;30.48;;;;;;;;;;5011646;28;93624;-68
2023/05/08 07:41:15;;;;;;;45.10;31.20;;;;;;;;;;5018334;28;92421;-68
2023/05/08 07:43:43;;;;;;;49.05;31.90;;;;;;;;;;5019196;27;94631;-67
2023/05/08 07:46:19;;;;;;;44.08;31.48;;;;;;;;;;5013897;28;93027;-69
2023/05/08 07:48:45;;;;;;;47.10;31.67;;;;;;;;;;5002221;28;92461;-68
2023/05/08 07:51:12;;;;;;;44.38;30.58;;;;;;;;;;5022126;28;93149;-69
2023/05/08 07:53:38;;;;;;;46.13;30.85;;;;;;;;;;5026840;27;95048;-69
2023/05/08 07:56:05;;;;;;;43.00;30.60;;;;;;;;;;5021942;27;95768;-68
2023/05/08 07:58:31;;;;;;;46.28;31.98;;;;;;;;;;5032877;27;93198;-69
2023/05/08 08:00:57;;;;;;;39.80;27.00;;;;;;;;;;5018124;27;93198;-68
2023/05/08 08:03:24;;;;;;;42.22;30.10;;;;;;;;;;5012436;28;94108;-68
2023/05/08 08:05:50;;;;;;;42.38;29.92;;;;;;;;;;5013002;28;93427;-68
2023/05/08 08:08:17;;;;;;;37.95;29.45;;;;;;;;;;5013113;28;92441;-68
2023/05/08 08:10:43;;;;;;;38.95;29.30;;;;;;;;;;5011855;28;94315;-68
2023/05/08 08:13:09;;;;;;;39.67;29.45;;;;;;;;;;5004921;28;93545;-69
2023/05/08 08:15:35;;;;;;;37.47;27.65;;;;;;;;;;5015865;28;93266;-68
2023/05/08 08:18:02;;;;;;;36.10;27.08;;;;;;;;;;5007090;28;95878;-68
2023/05/08 08:20:28;;;;;;;40.03;28.80;;;;;;;;;;5010101;28;92476;-68
2023/05/08 08:22:54;;;;;;;38.17;28.00;;;;;;;;;;5007252;28;93712;-69
2023/05/08 08:25:21;;;;;;;38.53;26.55;;;;;;;;;;5012608;28;94482;-68
2023/05/08 08:27:47;;;;;;;36.00;25.35;;;;;;;;;;5012237;28;93905;-69
2023/05/08 08:30:13;;;;;;;35.67;27.10;;;;;;;;;;5021161;28;93164;-70
2023/05/08 08:32:44;;;;;;;33.45;25.50;;;;;;;;;;5011753;28;95376;-68
2023/05/08 08:35:10;;;;;;;34.75;24.45;;;;;;;;;;5015910;28;91836;-70
2023/05/08 08:37:37;;;;;;;30.63;24.60;;;;;;;;;;5032452;27;93382;-68
2023/05/08 08:40:04;;;;;;;30.02;23.60;;;;;;;;;;5030799;27;92442;-70
2023/05/08 08:42:30;;;;;;;30.88;23.90;;;;;;;;;;5023363;27;96597;-68
2023/05/08 08:44:56;;;;;;;30.80;22.90;;;;;;;;;;5025244;27;93983;-70
2023/05/08 08:47:28;;;;;;;36.78;24.70;;;;;;;;;;5021070;27;92508;-69
2023/05/08 08:49:57;;;;;;;31.20;23.77;;;;;;;;;;5025326;28;94287;-68
2023/05/08 08:52:30;;;;;;;33.20;24.17;;;;;;;;;;5017487;27;94031;-68
2023/05/08 08:54:58;;;;;;;29.38;23.33;;;;;;;;;;5028765;27;92491;-68
2023/05/08 08:57:27;;;;;;;30.88;23.75;;;;;;;;;;5026268;28;93737;-69
2023/05/08 08:59:54;;;;;;;28.98;23.45;;;;;;;;;;5011556;28;91782;-69
2023/05/08 09:02:21;;;;;;;28.83;22.05;;;;;;;;;;5010995;28;93783;-71
2023/05/08 09:04:50;;;;;;;30.65;21.10;;;;;;;;;;5012521;28;93390;-69
2023/05/08 09:07:16;;;;;;;29.67;23.38;;;;;;;;;;5003818;28;94823;-69
2023/05/08 09:09:44;;;;;;;26.52;22.33;;;;;;;;;;5009940;28;95611;-70
2023/05/08 09:12:11;;;;;;;35.72;21.85;;;;;;;;;;5021120;28;93335;-69
2023/05/08 09:14:37;;;;;;;26.83;21.35;;;;;;;;;;5012320;28;92575;-70
2023/05/08 09:17:04;;;;;;;25.08;20.50;;;;;;;;;;5010165;28;93161;-70
2023/05/08 09:19:30;;;;;;;27.08;21.08;;;;;;;;;;5007814;28;93464;-69
2023/05/08 09:21:58;;;;;;;29.63;21.30;;;;;;;;;;5031816;27;93272;-68
2023/05/08 09:24:26;;;;;;;26.30;20.17;;;;;;;;;;5030837;28;92846;-70
2023/05/08 09:26:55;;;;;;;28.42;22.55;;;;;;;;;;5013718;28;92638;-67
2023/05/08 09:29:21;;;;;;;28.55;22.38;;;;;;;;;;5013732;28;94123;-68
2023/05/08 09:31:48;;;;;;;31.10;22.02;;;;;;;;;;5023108;27;95840;-69
2023/05/08 09:34:28;;;;;;;26.63;21.77;;;;;;;;;;5015735;28;92483;-69
2023/05/08 09:36:55;;;;;;;25.40;20.85;;;;;;;;;;4997076;28;93284;-69
2023/05/08 09:39:23;;;;;;;32.60;22.38;;;;;;;;;;4997149;28;94472;-70
2023/05/08 09:41:59;;;;;;;30.52;23.10;;;;;;;;;;5024031;28;93242;-68
2023/05/08 09:44:25;;;;;;;39.85;23.00;;;;;;;;;;5015109;28;96224;-68
2023/05/08 09:47:08;;;;;;;30.48;21.33;;;;;;;;;;5014814;28;92382;-68
2023/05/08 09:49:34;;;;;;;31.70;23.20;;;;;;;;;;5016663;28;93211;-68
2023/05/08 09:52:01;;;;;;;27.88;21.80;;;;;;;;;;5020502;27;94094;-68
2023/05/08 09:54:27;;;;;;;29.98;23.77;;;;;;;;;;5011123;28;92545;-68
2023/05/08 09:56:54;;;;;;;32.10;24.52;;;;;;;;;;5030002;28;94714;-68
2023/05/08 09:59:22;;;;;;;32.88;24.17;;;;;;;;;;5027270;27;94376;-68
2023/05/08 10:01:48;;;;;;;34.22;24.60;;;;;;;;;;5031926;27;92792;-68
2023/05/08 10:04:14;;;;;;;33.17;26.15;;;;;;;;;;5029720;27;93456;-69
2023/05/08 10:06:41;;;;;;;30.95;23.40;;;;;;;;;;5011048;27;92721;-68
2023/05/08 10:09:11;;;;;;;28.75;22.23;;;;;;;;;;5013252;28;94120;-68
2023/05/08 10:11:50;;;;;;;34.28;24.55;;;;;;;;;;5027371;27;93463;-68
2023/05/08 10:14:17;;;;;;;32.15;24.65;;;;;;;;;;5025980;28;91774;-68
2023/05/08 10:16:44;;;;;;;38.42;25.88;;;;;;;;;;5016513;28;93108;-68
2023/05/08 10:19:14;;;;;;;40.47;26.75;;;;;;;;;;5028104;28;93694;-68
2023/05/08 10:21:45;;;;;;;53.58;35.67;;;;;;;;;;5020666;28;95096;-68
2023/05/08 10:24:15;;;;;;;63.47;39.42;;;;;;;;;;5017766;28;96687;-68
2023/05/08 10:26:43;;;;;;;66.57;41.22;;;;;;;;;;5013972;28;92436;-68
2023/05/08 10:29:38;;;;;;;67.60;42.00;;;;;;;;;;5014860;28;94793;-68
2023/05/08 10:32:08;;;;;;;65.57;42.50;;;;;;;;;;5023008;27;94134;-68
2023/05/08 10:34:38;;;;;;;69.90;42.38;;;;;;;;;;5010822;28;92480;-69
2023/05/08 10:37:06;;;;;;;64.40;43.20;;;;;;;;;;5033387;27;93221;-68
2023/05/08 10:39:33;;;;;;;66.85;40.95;;;;;;;;;;5013986;27;92604;-68
2023/05/08 10:41:59;;;;;;;67.88;41.13;;;;;;;;;;5016079;27;92509;-68
2023/05/08 10:44:27;;;;;;;69.80;42.85;;;;;;;;;;5015203;27;94209;-68
2023/05/08 10:46:57;;;;;;;62.22;40.08;;;;;;;;;;5018493;27;98412;-70
2023/05/08 10:49:33;;;;;;;64.90;41.30;;;;;;;;;;5028846;27;95339;-68
2023/05/08 10:52:08;;;;;;;64.13;40.60;;;;;;;;;;5008948;28;93625;-69
2023/05/08 10:54:53;;;;;;;72.60;42.72;;;;;;;;;;5017848;28;92472;-68
2023/05/08 10:57:19;;;;;;;65.78;41.63;;;;;;;;;;5010085;28;93381;-69
2023/05/08 10:59:46;;;;;;;74.70;46.80;;;;;;;;;;5013762;28;93488;-68
2023/05/08 11:02:12;;;;;;;82.15;47.58;;;;;;;;;;5028255;27;92566;-69
2023/05/08 11:04:39;;;;;;;82.32;49.30;;;;;;;;;;5021930;27;94587;-69
2023/05/08 11:07:06;;;;;;;81.18;48.65;;;;;;;;;;5034275;28;94529;-68
2023/05/08 11:09:44;;;;;;;73.15;45.67;;;;;;;;;;5026547;27;92493;-69
2023/05/08 11:12:22;;;;;;;71.15;44.78;;;;;;;;;;5022613;27;95636;-69
2023/05/08 11:15:16;;;;;;;72.30;43.45;;;;;;;;;;5018366;28;92789;-68
2023/05/08 11:17:52;;;;;;;67.88;40.33;;;;;;;;;;5009954;28;92484;-68
2023/05/08 11:20:22;;;;;;;69.07;43.97;;;;;;;;;;5029338;27;93436;-68
2023/05/08 11:22:48;;;;;;;73.05;44.85;;;;;;;;;;5033848;27;92462;-69
2023/05/08 11:25:14;;;;;;;75.13;46.50;;;;;;;;;;5013985;27;93242;-69
2023/05/08 11:27:47;;;;;;;70.05;45.47;;;;;;;;;;5013631;28;94006;-68
2023/05/08 11:30:17;;;;;;;76.15;46.58;;;;;;;;;;5013194;28;91731;-68
2023/05/08 11:32:43;;;;;;;;;;;;;;;;;;5035096;28;93003;-68
2023/05/08 11:35:12;;;;;;;76.05;48.95;;;;;;;;;;5028396;28;119996;-69
2023/05/08 11:37:38;;;;;;;81.22;48.00;;;;;;;;;;5031980;27;94832;-68
2023/05/08 11:40:23;;;;;;;75.57;48.47;;;;;;;;;;5019237;27;93435;-69
2023/05/08 11:42:50;;;;;;;85.45;51.10;;;;;;;;;;5027095;28;92714;-68
2023/05/08 11:45:18;;;;;;;80.15;51.95;;;;;;;;;;5027530;27;95292;-68
2023/05/08 11:47:44;;;;;;;72.32;46.33;;;;;;;;;;5018618;28;93525;-68
2023/05/08 11:50:11;;;;;;;80.25;48.22;;;;;;;;;;5009939;28;92546;-68
2023/05/08 11:52:40;;;;;;;73.68;46.90;;;;;;;;;;5014603;27;94684;-68
2023/05/08 11:55:10;;;;;;;73.63;46.90;;;;;;;;;;5010150;28;92890;-68
2023/05/08 11:57:37;;;;;;;74.47;46.35;;;;;;;;;;5005896;28;92799;-68
2023/05/08 12:00:04;;;;;;;72.07;45.58;;;;;;;;;;5002102;27;94371;-68
2023/05/08 12:02:48;;;;;;;73.07;46.65;;;;;;;;;;5011250;28;95017;-68
2023/05/08 12:05:24;;;;;;;74.07;46.85;;;;;;;;;;5016283;28;95546;-68
2023/05/08 12:07:51;;;;;;;79.68;45.03;;;;;;;;;;5018788;27;94422;-68
2023/05/08 12:10:17;;;;;;;63.75;39.88;;;;;;;;;;5023946;27;92551;-68
2023/05/08 12:12:44;;;;;;;65.45;40.55;;;;;;;;;;5013089;28;95822;-68
2023/05/08 12:15:11;;;;;;;70.28;43.65;;;;;;;;;;5023244;27;93437;-68
2023/05/08 12:17:38;;;;;;;62.05;42.60;;;;;;;;;;5027042;28;93080;-68
2023/05/08 12:20:11;;;;;;;70.00;43.30;;;;;;;;;;5018520;28;94265;-68
2023/05/08 12:22:42;;;;;;;57.28;38.65;;;;;;;;;;5016948;28;92611;-68
2023/05/08 12:25:10;;;;;;;60.28;40.38;;;;;;;;;;5009874;27;93848;-68
2023/05/08 12:27:37;;;;;;;57.03;36.83;;;;;;;;;;5001112;28;95812;-68
2023/05/08 12:30:04;;;;;;;49.97;35.95;;;;;;;;;;5000741;28;93109;-68
2023/05/08 12:32:31;;;;;;;59.50;38.22;;;;;;;;;;4997784;28;95221;-67
2023/05/08 12:34:57;;;;;;;52.50;34.92;;;;;;;;;;5003337;28;93818;-68
2023/05/08 12:37:27;;;;;;;49.20;34.90;;;;;;;;;;5013121;28;92503;-68
2023/05/08 12:39:53;;;;;;;53.77;36.23;;;;;;;;;;5007555;27;94059;-68
2023/05/08 12:42:20;;;;;;;42.28;30.58;;;;;;;;;;5016681;27;94315;-69
2023/05/08 12:44:50;;;;;;;48.20;31.95;;;;;;;;;;5012041;28;94643;-68
2023/05/08 12:47:17;;;;;;;47.83;29.70;;;;;;;;;;5007587;27;94491;-68
2023/05/08 12:49:43;;;;;;;42.58;27.73;;;;;;;;;;5013735;27;94478;-68
2023/05/08 12:52:13;;;;;;;44.13;29.65;;;;;;;;;;5011660;28;96699;-68
2023/05/08 12:54:45;;;;;;;44.13;30.65;;;;;;;;;;5012695;27;94235;-68
2023/05/08 12:57:12;;;;;;;41.15;28.83;;;;;;;;;;5023947;28;94395;-68
2023/05/08 12:59:39;;;;;;;47.42;28.50;;;;;;;;;;5025050;27;93507;-68
2023/05/08 13:02:12;;;;;;;40.05;29.05;;;;;;;;;;5016442;28;92526;-68
2023/05/08 13:04:39;;;;;;;45.85;29.17;;;;;;;;;;5020292;27;96105;-68
2023/05/08 13:07:05;;;;;;;47.10;29.30;;;;;;;;;;5021587;27;94175;-68
2023/05/08 13:09:32;;;;;;;42.75;28.90;;;;;;;;;;5004841;28;93618;-69
2023/05/08 13:11:58;;;;;;;42.70;28.95;;;;;;;;;;5022961;28;93808;-68
2023/05/08 13:14:24;;;;;;;48.13;31.85;;;;;;;;;;5016906;27;93453;-67
2023/05/08 13:16:51;;;;;;;47.85;29.63;;;;;;;;;;5008201;28;96527;-68
2023/05/08 13:19:17;;;;;;;45.60;30.45;;;;;;;;;;5016905;28;94448;-68
2023/05/08 13:21:46;;;;;;;41.40;27.75;;;;;;;;;;5018623;28;93504;-69
2023/05/08 13:24:13;;;;;;;41.90;27.45;;;;;;;;;;5014386;28;93177;-70
2023/05/08 13:26:40;;;;;;;42.22;26.80;;;;;;;;;;5017908;28;94958;-70
2023/05/08 13:29:06;;;;;;;43.55;28.42;;;;;;;;;;5015816;27;92889;-70
2023/05/08 13:31:32;;;;;;;39.38;29.33;;;;;;;;;;5019826;28;93546;-70
2023/05/08 13:33:59;;;;;;;40.80;29.27;;;;;;;;;;5007408;28;93565;-69
2023/05/08 13:36:26;;;;;;;43.78;29.45;;;;;;;;;;5017752;27;94133;-69
2023/05/08 13:38:56;;;;;;;42.60;29.70;;;;;;;;;;5007959;28;94327;-70
2023/05/08 13:41:22;;;;;;;50.03;31.48;;;;;;;;;;5003043;28;95994;-69
2023/05/08 13:43:48;;;;;;;52.33;31.08;;;;;;;;;;5022792;27;94068;-69
2023/05/08 13:46:15;;;;;;;46.17;31.75;;;;;;;;;;5006711;27;93579;-69
2023/05/08 13:48:41;;;;;;;49.95;31.20;;;;;;;;;;5011045;27;94544;-69
2023/05/08 15:03:05;;;;;;;48.17;28.23;;;;;;;;;;5051248;27;86530;-67
2023/05/08 15:05:32;;;;;;;46.75;26.83;;;;;;;;;;5027713;27;89303;-66
2023/05/08 15:08:00;;;;;;;47.13;28.27;;;;;;;;;;5031134;27;89931;-66
2023/05/08 15:10:26;;;;;;;45.53;27.90;;;;;;;;;;5032616;27;89071;-66
2023/05/08 15:12:52;;;;;;;45.58;27.80;;;;;;;;;;5042925;27;91064;-65
2023/05/08 15:15:19;;;;;;;46.78;27.80;;;;;;;;;;5027207;27;90433;-65
2023/05/08 15:17:45;;;;;;;42.00;27.98;;;;;;;;;;5029682;27;89069;-66
2023/05/08 15:20:12;;;;;;;42.53;28.60;;;;;;;;;;5031490;27;90360;-65
2023/05/08 15:22:39;;;;;;;51.63;29.13;;;;;;;;;;5034582;27;90641;-65
2023/05/08 15:25:05;;;;;;;46.92;27.42;;;;;;;;;;5031887;28;91103;-65
2023/05/08 15:27:32;;;;;;;45.42;28.70;;;;;;;;;;5031622;27;89427;-65
2023/05/08 15:29:58;;;;;;;46.30;27.67;;;;;;;;;;5030761;27;89145;-65
2023/05/08 15:32:24;;;;;;;48.47;28.73;;;;;;;;;;5030835;27;89966;-66
2023/05/08 15:34:51;;;;;;;45.30;27.45;;;;;;;;;;5026098;27;92339;-65
2023/05/08 15:37:17;;;;;;;44.65;27.35;;;;;;;;;;5027917;28;89191;-65
2023/05/08 15:39:43;;;;;;;47.10;27.13;;;;;;;;;;5023353;27;91454;-65
2023/05/08 15:42:10;;;;;;;40.92;27.52;;;;;;;;;;5023757;27;89873;-65
2023/05/08 15:44:36;;;;;;;42.80;28.27;;;;;;;;;;5036049;27;89161;-65